Time;durP1;ratioP1;P1;durP2;ratioP2;P2;SDS_P1;SDS_P2;PMS_P1;PMS_P2;Temp;Humidity;BMP_temperature;BMP_pressure;BME280_temperature;BME280_humidity;BME280_pressure;Samples;Min_cycle;Max_cycle;Signal;HPM_P1;HPM_P2
2022/03/10 00:02:11;;;;;;;28.53;13.93;;;1.80;99.90;;;;;;5033140;28;20453;-72
2022/03/10 00:04:38;;;;;;;27.67;14.13;;;1.70;99.90;;;;;;5032337;28;20461;-71
2022/03/10 00:07:05;;;;;;;32.33;16.73;;;1.70;99.90;;;;;;5032583;28;20473;-71
2022/03/10 00:09:33;;;;;;;30.07;13.40;;;1.70;99.90;;;;;;5031789;28;20485;-72
2022/03/10 00:11:59;;;;;;;28.20;14.60;;;2.10;99.90;;;;;;5032397;28;21016;-71
2022/03/10 00:14:28;;;;;;;27.53;15.03;;;1.70;99.90;;;;;;5031823;28;20453;-71
2022/03/10 00:16:55;;;;;;;31.60;14.67;;;2.00;99.90;;;;;;5030988;28;20465;-71
2022/03/10 00:19:22;;;;;;;27.97;14.50;;;1.70;99.90;;;;;;5032620;28;20450;-71
2022/03/10 00:21:50;;;;;;;27.57;15.30;;;1.60;99.90;;;;;;5032144;28;20446;-71
2022/03/10 00:24:18;;;;;;;32.60;14.97;;;1.60;99.90;;;;;;5032174;28;20533;-71
2022/03/10 00:26:45;;;;;;;26.77;13.80;;;2.00;99.90;;;;;;5030847;28;20480;-71
2022/03/10 00:29:12;;;;;;;29.67;13.43;;;1.60;99.90;;;;;;5032414;28;20485;-71
2022/03/10 00:31:41;;;;;;;23.90;13.70;;;1.60;99.90;;;;;;5032063;28;20453;-71
2022/03/10 00:34:07;;;;;;;27.40;13.73;;;1.80;99.90;;;;;;5032135;28;20533;-71
2022/03/10 00:36:34;;;;;;;26.93;14.77;;;1.80;99.90;;;;;;5031798;28;20477;-71
2022/03/10 00:39:01;;;;;;;22.60;12.67;;;1.50;99.90;;;;;;5032160;28;20446;-71
2022/03/10 00:41:28;;;;;;;29.60;15.13;;;1.50;99.90;;;;;;5031517;28;20460;-71
2022/03/10 00:43:54;;;;;;;25.70;14.20;;;1.90;99.90;;;;;;5031824;28;20511;-71
2022/03/10 00:46:21;;;;;;;25.90;13.87;;;1.50;99.90;;;;;;5031551;28;20481;-71
2022/03/10 00:48:49;;;;;;;28.20;14.00;;;1.80;99.90;;;;;;5030772;28;20961;-71
2022/03/10 00:51:16;;;;;;;29.47;14.10;;;1.50;99.90;;;;;;5031701;28;20867;-71
2022/03/10 00:53:44;;;;;;;25.53;13.30;;;1.50;99.90;;;;;;5031447;28;20450;-71
2022/03/10 00:56:10;;;;;;;30.20;14.13;;;1.40;99.90;;;;;;5031222;28;20528;-71
2022/03/10 00:58:37;;;;;;;27.87;14.90;;;1.40;99.90;;;;;;5031699;28;20507;-71
2022/03/10 01:01:04;;;;;;;28.20;13.70;;;1.80;99.90;;;;;;5025562;28;20445;-71
2022/03/10 01:03:30;;;;;;;24.17;13.63;;;1.40;99.90;;;;;;5030532;28;20449;-71
2022/03/10 01:05:58;;;;;;;25.63;13.60;;;1.60;99.90;;;;;;5031333;28;20477;-71
2022/03/10 01:08:25;;;;;;;25.53;14.20;;;1.40;99.90;;;;;;5031468;28;20449;-71
2022/03/10 01:10:52;;;;;;;24.90;13.60;;;1.30;99.90;;;;;;5030778;28;20543;-72
2022/03/10 01:13:20;;;;;;;24.13;12.80;;;1.60;99.90;;;;;;5030859;28;20953;-72
2022/03/10 01:15:47;;;;;;;23.57;13.33;;;1.20;99.90;;;;;;5030955;28;21066;-72
2022/03/10 01:18:14;;;;;;;25.00;14.93;;;1.20;99.90;;;;;;5031253;28;20454;-72
2022/03/10 01:20:41;;;;;;;29.57;12.63;;;1.10;99.90;;;;;;5031425;28;20452;-71
2022/03/10 01:23:10;;;;;;;24.73;14.10;;;1.10;99.90;;;;;;5031067;28;20495;-72
2022/03/10 01:25:37;;;;;;;27.20;13.70;;;1.10;99.90;;;;;;5030595;28;20488;-72
2022/03/10 01:28:04;;;;;;;24.73;14.17;;;1.10;99.90;;;;;;5029949;28;20453;-72
2022/03/10 01:30:31;;;;;;;26.50;13.83;;;1.10;99.90;;;;;;5030661;28;20481;-72
2022/03/10 01:32:57;;;;;;;28.80;13.97;;;1.00;99.90;;;;;;5030901;28;20490;-72
2022/03/10 01:35:24;;;;;;;25.57;13.37;;;1.00;99.90;;;;;;5030992;28;20950;-72
2022/03/10 01:37:51;;;;;;;24.60;14.03;;;1.00;99.90;;;;;;5031187;28;20470;-72
2022/03/10 01:40:20;;;;;;;23.90;12.70;;;1.10;99.90;;;;;;5031181;28;20452;-72
2022/03/10 01:42:47;;;;;;;25.10;13.20;;;1.20;99.90;;;;;;5030684;28;20450;-72
2022/03/10 01:45:15;;;;;;;24.37;13.70;;;0.90;99.90;;;;;;5030676;28;20981;-72
2022/03/10 01:47:42;;;;;;;26.53;12.30;;;1.30;99.90;;;;;;5030389;28;20485;-72
2022/03/10 01:50:12;;;;;;;24.30;13.40;;;0.90;99.90;;;;;;5029964;28;20485;-72
2022/03/10 01:52:39;;;;;;;28.77;13.17;;;0.90;99.90;;;;;;5029911;28;20962;-72
2022/03/10 01:55:07;;;;;;;24.93;13.40;;;0.90;99.90;;;;;;5025507;28;20450;-72
2022/03/10 01:57:36;;;;;;;24.63;13.50;;;0.90;99.90;;;;;;5030740;28;20564;-72
2022/03/10 02:00:03;;;;;;;26.77;14.13;;;0.90;99.90;;;;;;5029644;28;20457;-72
2022/03/10 02:02:30;;;;;;;22.20;12.40;;;0.90;99.90;;;;;;5029866;28;20886;-72
2022/03/10 02:04:57;;;;;;;25.03;13.30;;;0.90;99.90;;;;;;5029921;28;20460;-72
2022/03/10 02:10:17;;;;;;;22.60;12.50;;;0.90;99.90;;;;;;5029749;28;20531;-72
2022/03/10 02:12:45;;;;;;;27.03;12.43;;;0.90;99.90;;;;;;5028599;28;20453;-72
2022/03/10 02:17:59;;;;;;;26.03;12.97;;;0.80;99.90;;;;;;5030362;28;20819;-72
2022/03/10 02:20:26;;;;;;;21.27;12.23;;;1.10;99.90;;;;;;5029371;28;20881;-72
2022/03/10 02:22:54;;;;;;;26.90;12.30;;;1.10;99.90;;;;;;5030028;28;20453;-72
2022/03/10 02:25:22;;;;;;;29.87;13.33;;;0.70;99.90;;;;;;5030061;28;20957;-72
2022/03/10 02:27:50;;;;;;;27.80;13.83;;;1.20;99.90;;;;;;5029806;28;20552;-72
2022/03/10 02:30:17;;;;;;;33.03;16.70;;;0.80;99.90;;;;;;5029510;28;20477;-72
2022/03/10 02:32:44;;;;;;;21.67;12.13;;;0.60;99.90;;;;;;5029333;28;20460;-72
2022/03/10 02:35:11;;;;;;;26.97;13.10;;;0.50;99.90;;;;;;5029849;28;20523;-72
2022/03/10 02:37:38;;;;;;;26.17;14.30;;;0.50;99.90;;;;;;5029880;28;20561;-72
2022/03/10 02:40:07;;;;;;;32.97;14.93;;;0.40;99.90;;;;;;5029059;28;20519;-72
2022/03/10 02:42:34;;;;;;;27.23;13.03;;;0.40;99.90;;;;;;5029404;28;21007;-72
2022/03/10 02:45:01;;;;;;;25.67;13.37;;;0.30;99.90;;;;;;5028612;28;20449;-72
2022/03/10 02:47:29;;;;;;;25.00;12.50;;;0.30;99.90;;;;;;5029374;28;20473;-72
2022/03/10 02:49:55;;;;;;;25.10;13.63;;;0.30;99.90;;;;;;5028770;28;20540;-72
2022/03/10 02:52:22;;;;;;;26.33;13.03;;;0.20;99.90;;;;;;5029491;28;20984;-72
2022/03/10 02:54:50;;;;;;;22.17;11.70;;;0.60;99.90;;;;;;5029291;28;20453;-72
2022/03/10 02:57:18;;;;;;;23.50;12.90;;;0.20;99.90;;;;;;5029544;28;20476;-72
2022/03/10 02:59:45;;;;;;;21.80;12.50;;;0.20;99.90;;;;;;5029345;28;20441;-72
2022/03/10 03:02:12;;;;;;;22.00;12.67;;;0.20;99.90;;;;;;5027852;28;20454;-72
2022/03/10 03:04:39;;;;;;;25.80;12.70;;;0.20;99.90;;;;;;5028803;28;20457;-72
2022/03/10 03:07:06;;;;;;;23.57;11.90;;;0.30;99.90;;;;;;5029464;28;20489;-72
2022/03/10 03:09:32;;;;;;;23.63;12.17;;;0.50;99.90;;;;;;5030026;28;20459;-72
2022/03/10 03:11:59;;;;;;;25.67;11.40;;;0.30;99.90;;;;;;5028048;28;20453;-72
2022/03/10 03:14:27;;;;;;;20.23;10.43;;;0.30;99.90;;;;;;5029092;28;20449;-72
2022/03/10 03:16:56;;;;;;;22.50;12.50;;;0.30;99.90;;;;;;5027741;28;20477;-72
2022/03/10 03:19:22;;;;;;;23.23;11.70;;;0.30;99.90;;;;;;5029012;28;20870;-72
2022/03/10 03:21:50;;;;;;;19.03;10.70;;;0.30;99.90;;;;;;5028082;28;20449;-72
2022/03/10 03:24:17;;;;;;;20.57;11.77;;;0.30;99.90;;;;;;5026421;28;20453;-72
2022/03/10 03:26:44;;;;;;;22.17;11.47;;;0.30;99.90;;;;;;5029517;28;20508;-72
2022/03/10 03:29:11;;;;;;;20.83;11.10;;;0.30;99.90;;;;;;5029525;28;20457;-72
2022/03/10 03:31:39;;;;;;;22.90;12.37;;;0.30;99.90;;;;;;5028466;28;20481;-72
2022/03/10 03:34:10;;;;;;;21.53;11.30;;;0.30;99.90;;;;;;5029214;28;20449;-71
2022/03/10 03:36:37;;;;;;;24.27;12.70;;;0.20;99.90;;;;;;5028948;28;20481;-72
2022/03/10 03:39:04;;;;;;;24.20;12.80;;;0.20;99.90;;;;;;5028931;28;20461;-72
2022/03/10 03:41:31;;;;;;;24.40;11.77;;;0.20;99.90;;;;;;5028615;28;20453;-72
2022/03/10 03:43:58;;;;;;;26.77;12.90;;;0.10;99.90;;;;;;5029152;28;20503;-71
2022/03/10 03:46:24;;;;;;;25.37;12.57;;;0.10;99.90;;;;;;5028592;28;20981;-72
2022/03/10 03:48:53;;;;;;;25.60;12.17;;;0.00;99.90;;;;;;5029338;28;20454;-72
2022/03/10 03:51:19;;;;;;;24.20;13.07;;;0.00;99.90;;;;;;5028779;28;20492;-72
2022/03/10 03:53:47;;;;;;;24.60;12.80;;;-0.10;99.90;;;;;;5030805;28;20453;-71
2022/03/10 03:56:14;;;;;;;21.47;12.30;;;-0.20;99.90;;;;;;5026698;28;20833;-72
2022/03/10 03:58:40;;;;;;;26.17;12.00;;;-0.30;99.90;;;;;;5032315;28;20446;-72
2022/03/10 04:01:07;;;;;;;20.73;11.33;;;-0.30;99.90;;;;;;5031643;28;20442;-72
2022/03/10 04:03:34;;;;;;;25.07;12.23;;;-0.30;99.90;;;;;;5032195;28;20515;-72
2022/03/10 04:06:02;;;;;;;20.63;11.77;;;0.00;99.90;;;;;;5032456;28;20469;-72
2022/03/10 04:08:29;;;;;;;26.80;11.97;;;-0.30;99.90;;;;;;5032856;28;20457;-72
2022/03/10 04:10:55;;;;;;;21.80;10.70;;;-0.30;99.90;;;;;;5031603;28;20484;-72
2022/03/10 04:13:22;;;;;;;15.20;9.43;;;-0.20;99.90;;;;;;5031930;28;20453;-72
2022/03/10 04:15:49;;;;;;;20.23;11.03;;;-0.30;99.90;;;;;;5031929;28;20473;-72
2022/03/10 04:18:16;;;;;;;18.90;10.30;;;-0.20;99.90;;;;;;5026038;28;20540;-72
2022/03/10 04:20:43;;;;;;;19.30;10.70;;;-0.20;99.90;;;;;;5031594;28;20572;-72
2022/03/10 04:23:11;;;;;;;33.93;10.80;;;-0.20;99.90;;;;;;5032184;28;20501;-72
2022/03/10 04:25:38;;;;;;;16.10;10.17;;;-0.10;99.90;;;;;;5032091;28;20499;-72
2022/03/10 04:28:05;;;;;;;16.80;10.50;;;-0.30;99.90;;;;;;5031822;28;20540;-72
2022/03/10 04:30:33;;;;;;;22.80;12.07;;;-0.30;99.90;;;;;;5031140;28;20481;-72
2022/03/10 04:33:02;;;;;;;17.13;10.70;;;0.10;99.90;;;;;;5024776;28;20453;-72
2022/03/10 04:35:29;;;;;;;25.80;10.87;;;-0.30;99.90;;;;;;5032214;28;20457;-72
2022/03/10 04:37:56;;;;;;;20.17;10.90;;;-0.30;99.90;;;;;;5032057;28;20449;-72
2022/03/10 04:40:25;;;;;;;26.20;11.47;;;-0.30;99.90;;;;;;5031365;28;20499;-72
2022/03/10 04:42:51;;;;;;;21.00;11.40;;;-0.40;99.90;;;;;;5031959;28;20460;-72
2022/03/10 04:45:19;;;;;;;24.00;11.60;;;-0.40;99.90;;;;;;5031361;28;20512;-72
2022/03/10 04:47:46;;;;;;;23.80;12.40;;;-0.40;99.90;;;;;;5031608;28;21322;-72
2022/03/10 04:50:14;;;;;;;24.63;11.23;;;-0.50;99.90;;;;;;5031093;28;20543;-72
2022/03/10 04:52:41;;;;;;;26.67;11.83;;;-0.50;99.90;;;;;;5031678;28;20456;-72
2022/03/10 04:55:10;;;;;;;19.30;11.07;;;-0.60;99.90;;;;;;5031952;28;20533;-73
2022/03/10 04:57:39;;;;;;;21.43;12.20;;;-0.60;99.90;;;;;;5031256;28;20556;-72
2022/03/10 05:00:08;;;;;;;20.97;11.90;;;-0.60;99.90;;;;;;5030995;28;20508;-72
2022/03/10 05:02:35;;;;;;;23.23;11.47;;;-0.70;99.90;;;;;;5030298;28;20850;-72
2022/03/10 05:05:02;;;;;;;24.77;11.80;;;-0.50;99.90;;;;;;5030186;28;20457;-72
2022/03/10 05:07:29;;;;;;;23.90;12.10;;;-0.70;99.90;;;;;;5030698;28;20474;-72
2022/03/10 05:09:56;;;;;;;25.97;12.60;;;-0.70;99.90;;;;;;5030982;28;20972;-72
2022/03/10 05:12:23;;;;;;;24.53;11.83;;;-0.50;99.90;;;;;;5030024;28;20546;-72
2022/03/10 05:14:51;;;;;;;24.30;12.40;;;-0.80;99.90;;;;;;5031376;28;20476;-72
2022/03/10 05:17:18;;;;;;;23.07;11.50;;;-0.80;99.90;;;;;;5031053;28;20469;-72
2022/03/10 05:19:44;;;;;;;24.53;13.40;;;-0.50;99.90;;;;;;5030981;28;20458;-72
2022/03/10 05:22:11;;;;;;;27.73;12.43;;;-0.60;99.90;;;;;;5030441;28;20496;-72
2022/03/10 05:24:38;;;;;;;26.07;13.83;;;-0.60;99.90;;;;;;5030995;28;20461;-72
2022/03/10 05:27:05;;;;;;;32.87;14.20;;;-0.70;99.90;;;;;;5030849;28;20469;-72
2022/03/10 05:29:31;;;;;;;27.27;14.17;;;-0.70;99.90;;;;;;5031457;28;20591;-72
2022/03/10 05:31:59;;;;;;;33.30;15.43;;;-0.80;99.90;;;;;;5030324;28;20481;-72
2022/03/10 05:34:26;;;;;;;28.83;13.87;;;-0.50;99.90;;;;;;5030861;28;20457;-72
2022/03/10 05:36:52;;;;;;;27.50;13.80;;;-0.70;99.90;;;;;;5030379;28;20527;-72
2022/03/10 05:39:19;;;;;;;34.73;13.90;;;-0.90;99.90;;;;;;5030857;28;20489;-72
2022/03/10 05:41:46;;;;;;;26.13;13.50;;;-0.50;99.90;;;;;;5029731;28;20446;-72
2022/03/10 05:44:12;;;;;;;25.77;13.27;;;-0.90;99.90;;;;;;5030831;28;20515;-73
2022/03/10 05:46:39;;;;;;;28.47;13.40;;;-0.50;99.90;;;;;;5030829;28;20477;-73
2022/03/10 05:49:07;;;;;;;25.70;13.93;;;-0.80;99.90;;;;;;5029874;28;20745;-72
2022/03/10 05:51:36;;;;;;;27.47;14.73;;;-0.80;99.90;;;;;;5029951;28;20547;-73
2022/03/10 05:54:03;;;;;;;27.83;14.60;;;-0.80;99.90;;;;;;5030224;28;20450;-72
2022/03/10 05:56:29;;;;;;;28.43;14.07;;;-0.70;99.90;;;;;;5030600;28;20469;-73
2022/03/10 05:58:56;;;;;;;33.10;15.00;;;-0.70;99.90;;;;;;5030239;28;20454;-74
2022/03/10 06:01:23;;;;;;;30.53;13.37;;;-0.70;99.90;;;;;;5029088;28;20472;-73
2022/03/10 06:03:49;;;;;;;30.07;14.60;;;-0.40;99.90;;;;;;5029794;28;20961;-74
2022/03/10 06:06:17;;;;;;;30.40;15.50;;;-0.70;99.90;;;;;;5029090;28;20862;-73
2022/03/10 06:08:44;;;;;;;30.57;14.23;;;-0.40;99.90;;;;;;5029438;28;20449;-72
2022/03/10 06:11:11;;;;;;;25.87;15.03;;;-0.60;99.90;;;;;;5029031;28;20469;-73
2022/03/10 06:13:38;;;;;;;33.40;15.80;;;-0.60;99.90;;;;;;5029804;28;20472;-73
2022/03/10 06:16:06;;;;;;;27.90;14.73;;;-0.50;99.90;;;;;;5028217;28;20476;-73
2022/03/10 06:18:32;;;;;;;37.53;15.40;;;-0.30;99.90;;;;;;5029417;28;20457;-73
2022/03/10 06:20:59;;;;;;;34.37;14.80;;;-0.30;99.90;;;;;;5030952;28;20508;-73
2022/03/10 06:23:27;;;;;;;32.17;16.03;;;0.20;99.90;;;;;;5030343;28;20460;-73
2022/03/10 06:25:54;;;;;;;35.17;15.50;;;-0.10;99.90;;;;;;5029315;28;20473;-73
2022/03/10 06:28:21;;;;;;;33.37;16.17;;;0.10;99.90;;;;;;5029904;28;20454;-73
2022/03/10 06:30:48;;;;;;;27.80;14.50;;;0.40;99.90;;;;;;5028583;28;20485;-72
2022/03/10 06:33:14;;;;;;;33.53;14.57;;;1.20;99.90;;;;;;5028364;28;21181;-73
2022/03/10 06:35:41;;;;;;;33.10;14.57;;;1.60;99.90;;;;;;5029805;28;20953;-73
2022/03/10 06:38:08;;;;;;;32.23;14.50;;;2.40;99.90;;;;;;5026652;28;20504;-73
2022/03/10 06:40:37;;;;;;;27.50;14.50;;;2.60;99.90;;;;;;5029744;28;20485;-73
2022/03/10 06:43:04;;;;;;;30.83;15.40;;;3.10;99.90;;;;;;5028447;28;20445;-73
2022/03/10 06:45:31;;;;;;;33.03;15.27;;;3.50;99.90;;;;;;5027620;28;20445;-73
2022/03/10 06:47:58;;;;;;;28.80;14.40;;;4.10;99.90;;;;;;5029438;28;20445;-73
2022/03/10 06:50:25;;;;;;;31.17;14.47;;;4.50;99.90;;;;;;5028655;28;20536;-73
2022/03/10 06:52:56;;;;;;;28.17;15.60;;;4.90;99.90;;;;;;5028135;28;20554;-73
2022/03/10 06:55:23;;;;;;;26.93;14.97;;;5.20;99.90;;;;;;5028402;28;20481;-73
2022/03/10 06:57:51;;;;;;;23.90;13.90;;;5.60;99.90;;;;;;5029839;28;20974;-73
2022/03/10 07:00:18;;;;;;;25.50;14.13;;;6.00;99.90;;;;;;5030125;28;20449;-74
2022/03/10 07:02:45;;;;;;;22.67;13.87;;;6.40;99.90;;;;;;5030601;28;20929;-73
2022/03/10 07:05:12;;;;;;;25.43;14.27;;;6.60;99.90;;;;;;5030393;28;20950;-73
2022/03/10 07:07:39;;;;;;;27.97;15.77;;;6.80;99.90;;;;;;5030668;28;20472;-73
2022/03/10 07:10:07;;;;;;;23.17;13.80;;;7.10;99.90;;;;;;5030363;28;20445;-73
2022/03/10 07:12:35;;;;;;;26.50;14.77;;;7.50;99.90;;;;;;5030383;28;20484;-73
2022/03/10 07:15:04;;;;;;;29.77;14.00;;;7.80;99.90;;;;;;5030216;28;20449;-73
2022/03/10 07:17:31;;;;;;;29.23;15.70;;;8.20;99.90;;;;;;5030503;28;20476;-73
2022/03/10 07:19:58;;;;;;;30.73;15.80;;;8.40;99.90;;;;;;5030487;28;20514;-73
2022/03/10 07:22:24;;;;;;;22.37;13.87;;;8.80;99.90;;;;;;5030533;28;20519;-73
2022/03/10 07:24:51;;;;;;;31.20;14.50;;;9.20;99.90;;;;;;5030012;28;20495;-73
2022/03/10 07:27:18;;;;;;;26.97;14.00;;;9.60;99.90;;;;;;5032705;28;20461;-73
2022/03/10 07:29:45;;;;;;;33.07;15.93;;;9.90;99.90;;;;;;5034469;28;20449;-73
2022/03/10 07:32:13;;;;;;;27.13;15.30;;;10.30;99.50;;;;;;5034345;28;20872;-73
2022/03/10 07:34:40;;;;;;;30.37;15.17;;;10.70;98.90;;;;;;5034125;28;20485;-73
2022/03/10 07:37:06;;;;;;;25.33;15.97;;;11.10;98.10;;;;;;5034076;28;21067;-73
2022/03/10 07:39:33;;;;;;;26.20;14.90;;;11.20;97.60;;;;;;5033771;28;20817;-73
2022/03/10 07:42:00;;;;;;;28.20;16.00;;;11.50;97.00;;;;;;5033904;28;20968;-73
2022/03/10 07:44:27;;;;;;;25.40;14.70;;;11.70;96.70;;;;;;5034053;28;20445;-73
2022/03/10 07:46:54;;;;;;;30.40;14.93;;;12.00;96.20;;;;;;5033775;28;20465;-73
2022/03/10 07:49:22;;;;;;;29.90;16.00;;;12.10;95.30;;;;;;5033955;28;20460;-73
2022/03/10 07:51:48;;;;;;;32.70;15.70;;;11.90;95.90;;;;;;5033673;28;20599;-73
2022/03/10 07:54:15;;;;;;;27.20;15.27;;;11.80;96.00;;;;;;5033414;28;20449;-73
2022/03/10 07:56:42;;;;;;;28.83;16.93;;;11.60;95.90;;;;;;5033769;28;20543;-73
2022/03/10 07:59:09;;;;;;;25.57;14.77;;;11.40;96.00;;;;;;5033733;28;20444;-73
2022/03/10 08:01:35;;;;;;;25.20;16.07;;;11.10;95.90;;;;;;5033478;28;20457;-72
2022/03/10 08:04:02;;;;;;;27.80;16.80;;;11.00;96.80;;;;;;5033321;28;20453;-73
2022/03/10 08:06:31;;;;;;;25.17;15.10;;;10.90;96.50;;;;;;5033334;28;21001;-73
2022/03/10 08:08:57;;;;;;;27.53;15.57;;;10.90;96.30;;;;;;5033708;28;20880;-73
2022/03/10 08:11:24;;;;;;;32.93;16.73;;;10.80;96.40;;;;;;5033933;28;20538;-73
2022/03/10 08:13:51;;;;;;;32.60;16.37;;;10.70;96.70;;;;;;5033227;28;20914;-73
2022/03/10 08:16:18;;;;;;;28.20;16.40;;;10.80;96.90;;;;;;5033331;28;20973;-73
2022/03/10 08:18:45;;;;;;;27.73;15.63;;;11.00;96.40;;;;;;5033240;28;20978;-73
2022/03/10 08:21:12;;;;;;;29.90;16.57;;;11.00;95.70;;;;;;5033345;28;20453;-73
2022/03/10 08:23:40;;;;;;;31.60;15.60;;;11.10;95.50;;;;;;5033238;28;20453;-73
2022/03/10 08:26:06;;;;;;;30.60;19.30;;;11.20;96.10;;;;;;5033397;28;20508;-73
2022/03/10 08:28:34;;;;;;;68.60;25.40;;;11.40;95.70;;;;;;5033100;28;21003;-73
2022/03/10 08:31:01;;;;;;;32.73;18.43;;;11.40;95.80;;;;;;5032952;28;20944;-73
2022/03/10 08:33:28;;;;;;;22.00;14.20;;;11.40;95.80;;;;;;5032689;28;20822;-73
2022/03/10 08:35:55;;;;;;;27.40;15.97;;;11.50;94.90;;;;;;5032773;28;20503;-73
2022/03/10 08:38:22;;;;;;;25.00;15.43;;;11.70;94.60;;;;;;5032366;28;20563;-73
2022/03/10 08:40:50;;;;;;;27.63;17.60;;;11.60;96.20;;;;;;5032844;28;20441;-72
2022/03/10 08:43:16;;;;;;;24.57;15.10;;;11.50;96.00;;;;;;5032986;28;20454;-73
2022/03/10 08:45:43;;;;;;;28.00;15.60;;;11.10;96.00;;;;;;5033038;28;20449;-73
2022/03/10 08:48:10;;;;;;;23.77;15.13;;;11.30;96.30;;;;;;5033137;28;21115;-73
2022/03/10 08:50:38;;;;;;;31.67;16.70;;;11.60;96.30;;;;;;5032733;28;20957;-73
2022/03/10 08:53:05;;;;;;;26.47;15.10;;;11.60;95.70;;;;;;5032747;28;20521;-73
2022/03/10 08:55:32;;;;;;;23.57;14.80;;;11.90;94.50;;;;;;5032490;28;20449;-73
2022/03/10 08:58:00;;;;;;;28.37;16.23;;;12.00;93.20;;;;;;5032497;28;20453;-73
2022/03/10 09:00:27;;;;;;;32.33;17.27;;;11.90;94.10;;;;;;5032130;28;20926;-72
2022/03/10 09:02:54;;;;;;;26.83;15.50;;;12.20;94.30;;;;;;5032682;28;20442;-73
2022/03/10 09:05:20;;;;;;;41.30;22.03;;;12.40;92.50;;;;;;5032200;28;20504;-73
2022/03/10 09:07:47;;;;;;;27.47;16.07;;;12.60;92.90;;;;;;5032384;28;21013;-73
2022/03/10 09:10:14;;;;;;;28.57;16.50;;;12.80;92.40;;;;;;5032127;28;20870;-73
2022/03/10 09:12:41;;;;;;;29.17;15.77;;;12.70;91.90;;;;;;5032036;28;20547;-73
2022/03/10 09:15:10;;;;;;;40.77;20.83;;;12.40;91.50;;;;;;5032242;28;20563;-73
2022/03/10 09:17:38;;;;;;;25.07;15.40;;;12.20;92.40;;;;;;5032204;28;21040;-73
2022/03/10 09:20:07;;;;;;;30.23;15.37;;;12.00;92.50;;;;;;5032083;28;20540;-73
2022/03/10 09:22:34;;;;;;;24.63;15.43;;;12.00;92.00;;;;;;5032237;28;20445;-72
2022/03/10 09:25:02;;;;;;;28.70;15.47;;;12.10;91.90;;;;;;5031667;28;20552;-73
2022/03/10 09:27:29;;;;;;;32.03;15.80;;;12.50;92.30;;;;;;5032181;28;20469;-73
2022/03/10 09:29:56;;;;;;;32.63;16.10;;;12.60;92.00;;;;;;5031895;28;20938;-73
2022/03/10 09:32:24;;;;;;;27.27;15.70;;;12.60;91.80;;;;;;5031969;28;20558;-73
2022/03/10 09:34:50;;;;;;;28.23;15.80;;;12.90;92.10;;;;;;5031511;28;20813;-72
2022/03/10 09:37:17;;;;;;;24.47;15.50;;;13.00;91.40;;;;;;5031804;28;20470;-73
2022/03/10 09:39:44;;;;;;;26.43;15.83;;;12.90;91.10;;;;;;5031551;28;20988;-73
2022/03/10 09:42:14;;;;;;;24.13;15.23;;;12.80;90.40;;;;;;5031859;28;20442;-73
2022/03/10 09:44:43;;;;;;;23.17;15.13;;;12.70;91.20;;;;;;5031696;28;20453;-73
2022/03/10 09:47:10;;;;;;;27.40;15.63;;;12.80;90.30;;;;;;5031701;28;20913;-72
2022/03/10 09:49:39;;;;;;;29.83;15.60;;;12.80;91.50;;;;;;5030921;28;20568;-73
2022/03/10 09:52:08;;;;;;;28.63;15.53;;;12.90;91.40;;;;;;5031476;28;20481;-72
2022/03/10 09:54:34;;;;;;;20.90;14.13;;;12.90;91.30;;;;;;5031592;28;20539;-73
2022/03/10 09:57:02;;;;;;;21.97;13.97;;;13.10;90.70;;;;;;5031868;28;20476;-73
2022/03/10 09:59:30;;;;;;;28.60;14.53;;;12.80;90.40;;;;;;5031490;28;20445;-73
2022/03/10 10:01:57;;;;;;;24.07;14.43;;;12.80;90.40;;;;;;5031162;28;20437;-72
2022/03/10 10:04:24;;;;;;;26.87;14.97;;;12.80;90.30;;;;;;5031008;28;20905;-73
2022/03/10 10:07:02;;;;;;;26.63;13.27;;;12.90;90.90;;;;;;5031773;28;20484;-72
2022/03/10 10:09:40;;;;;;;26.67;14.10;;;13.00;89.90;;;;;;5031475;28;20547;-72
2022/03/10 10:12:07;;;;;;;22.13;13.07;;;13.10;87.70;;;;;;5031278;28;20531;-73
2022/03/10 10:14:38;;;;;;;23.07;13.60;;;13.00;87.90;;;;;;5030802;28;20454;-73
2022/03/10 10:17:05;;;;;;;21.03;14.23;;;12.80;89.30;;;;;;5031235;28;20473;-73
2022/03/10 10:19:33;;;;;;;24.53;15.37;;;12.60;89.20;;;;;;5031247;28;20536;-73
2022/03/10 10:22:12;;;;;;;24.83;14.73;;;13.00;90.50;;;;;;5031262;28;20532;-73
2022/03/10 10:24:39;;;;;;;22.30;14.40;;;13.20;87.60;;;;;;5031181;28;20453;-73
2022/03/10 10:27:13;;;;;;;26.50;14.43;;;12.90;88.30;;;;;;5030808;28;20480;-73
2022/03/10 10:29:48;;;;;;;19.73;12.33;;;13.20;88.90;;;;;;5031032;28;20543;-73
2022/03/10 10:32:25;;;;;;;20.87;13.70;;;13.30;88.50;;;;;;5031082;28;20485;-73
2022/03/10 10:35:03;;;;;;;21.87;12.80;;;13.40;87.80;;;;;;5031250;28;20448;-73
2022/03/10 10:37:32;;;;;;;24.53;12.93;;;13.80;88.20;;;;;;5030615;28;20562;-73
2022/03/10 10:39:59;;;;;;;17.13;11.77;;;13.70;85.80;;;;;;5031066;28;20457;-72
2022/03/10 10:42:30;;;;;;;20.50;13.00;;;13.50;85.90;;;;;;5030959;28;20939;-73
2022/03/10 10:44:58;;;;;;;23.73;12.83;;;13.30;86.20;;;;;;5030783;28;20476;-72
2022/03/10 10:47:26;;;;;;;25.00;13.00;;;13.50;88.40;;;;;;5030555;28;21016;-72
2022/03/10 10:50:01;;;;;;;23.37;13.27;;;14.00;87.20;;;;;;5030599;28;20531;-73
2022/03/10 10:52:39;;;;;;;26.47;12.53;;;14.20;86.10;;;;;;5030756;28;20545;-73
2022/03/10 10:55:11;;;;;;;18.13;12.63;;;14.30;84.90;;;;;;5030599;28;21019;-76
2022/03/10 10:57:39;;;;;;;18.07;12.03;;;14.20;85.10;;;;;;5030730;28;20469;-73
2022/03/10 11:00:09;;;;;;;20.87;13.20;;;14.30;85.70;;;;;;5029892;28;20445;-74
2022/03/10 11:02:38;;;;;;;21.70;12.47;;;14.50;85.60;;;;;;5030027;28;20449;-72
2022/03/10 11:05:07;;;;;;;25.67;13.30;;;14.60;83.00;;;;;;5030375;28;20556;-74
2022/03/10 11:07:34;;;;;;;18.67;13.03;;;14.90;84.30;;;;;;5030967;28;20527;-73
2022/03/10 11:10:05;;;;;;;17.87;12.10;;;15.20;84.50;;;;;;5030776;28;20485;-73
2022/03/10 11:12:33;;;;;;;26.73;13.27;;;15.60;82.50;;;;;;5030395;28;20485;-73
2022/03/10 11:15:00;;;;;;;19.80;13.53;;;16.10;83.70;;;;;;5030165;28;20434;-73
2022/03/10 11:17:27;;;;;;;16.67;11.67;;;16.40;80.80;;;;;;5030364;28;20906;-74
2022/03/10 11:19:56;;;;;;;18.10;12.10;;;16.70;80.60;;;;;;5030537;28;20420;-73
2022/03/10 11:22:29;;;;;;;18.60;12.57;;;17.00;81.00;;;;;;5030404;28;20465;-73
2022/03/10 11:25:18;;;;;;;21.20;12.60;;;16.50;78.00;;;;;;5030422;28;20427;-74
2022/03/10 11:27:51;;;;;;;19.03;12.77;;;16.10;79.70;;;;;;5030521;28;20447;-73
2022/03/10 11:30:18;;;;;;;21.13;12.30;;;16.20;79.70;;;;;;5030592;28;20460;-73
2022/03/10 11:33:01;;;;;;;19.23;12.73;;;16.50;79.00;;;;;;5030352;28;20485;-74
2022/03/10 11:35:31;;;;;;;18.60;11.93;;;16.50;78.80;;;;;;5030310;28;20419;-73
2022/03/10 11:37:58;;;;;;;18.97;12.30;;;16.40;78.80;;;;;;5030104;28;20513;-73
2022/03/10 11:40:43;;;;;;;21.50;11.00;;;16.10;80.50;;;;;;5030540;28;20530;-73
2022/03/10 11:43:11;;;;;;;19.33;12.77;;;16.30;80.30;;;;;;5030171;28;20474;-73
2022/03/10 11:45:38;;;;;;;19.00;11.93;;;16.30;77.70;;;;;;5030355;28;20462;-71
2022/03/10 11:48:35;;;;;;;16.47;11.50;;;16.30;78.80;;;;;;5030312;28;20610;-73
2022/03/10 11:51:20;;;;;;;25.33;11.73;;;16.30;78.70;;;;;;5030139;28;20982;-73
2022/03/10 11:54:06;;;;;;;18.13;12.40;;;16.10;78.00;;;;;;5029902;28;20488;-73
2022/03/10 11:57:06;;;;;;;25.17;11.63;;;16.10;77.10;;;;;;5030045;28;20462;-74
2022/03/10 12:00:00;;;;;;;21.93;12.53;;;16.30;78.30;;;;;;5030413;28;20434;-74
2022/03/10 12:02:32;;;;;;;19.40;11.63;;;16.30;77.80;;;;;;5029705;28;20441;-73
2022/03/10 12:04:59;;;;;;;19.10;13.30;;;16.10;76.50;;;;;;5030007;28;20468;-73
2022/03/10 12:07:29;;;;;;;17.63;11.90;;;15.90;78.50;;;;;;5030271;28;20470;-74
2022/03/10 12:10:04;;;;;;;16.53;11.07;;;16.10;78.20;;;;;;5030057;28;20477;-73
2022/03/10 12:12:38;;;;;;;21.63;12.20;;;16.30;76.80;;;;;;5030743;28;20419;-73
2022/03/10 12:15:48;;;;;;;17.50;11.73;;;16.70;77.90;;;;;;5033482;28;20503;-73
2022/03/10 12:18:20;;;;;;;18.87;12.47;;;16.40;76.80;;;;;;5033657;28;20499;-73
2022/03/10 12:20:48;;;;;;;17.63;10.87;;;16.60;77.60;;;;;;5033454;28;20866;-74
2022/03/10 12:23:15;;;;;;;16.97;11.90;;;16.90;75.50;;;;;;5033109;28;20450;-73
2022/03/10 12:25:44;;;;;;;17.33;11.43;;;17.30;76.60;;;;;;5033545;28;20482;-73
2022/03/10 12:28:22;;;;;;;14.80;11.77;;;17.30;75.40;;;;;;5033180;28;20507;-73
2022/03/10 12:30:50;;;;;;;18.47;11.63;;;17.40;74.80;;;;;;5033114;28;20432;-73
2022/03/10 12:33:16;;;;;;;20.23;11.17;;;17.50;74.20;;;;;;5032982;28;20467;-73
2022/03/10 12:35:43;;;;;;;17.43;11.53;;;18.00;74.70;;;;;;5033095;28;20428;-73
2022/03/10 12:38:10;;;;;;;16.70;10.40;;;17.80;72.60;;;;;;5033006;28;21023;-74
2022/03/10 12:40:38;;;;;;;15.30;10.80;;;17.90;72.80;;;;;;5033123;28;20460;-73
2022/03/10 12:43:07;;;;;;;15.20;11.33;;;17.70;73.20;;;;;;5032846;28;20869;-71